Time;durP1;ratioP1;P1;durP2;ratioP2;P2;SDS_P1;SDS_P2;PMS_P1;PMS_P2;Temp;Humidity;BMP_temperature;BMP_pressure;BME280_temperature;BME280_humidity;BME280_pressure;Samples;Min_cycle;Max_cycle;Signal;HPM_P1;HPM_P2
2023/08/14 00:01:58;;;;;;;9.50;4.57;;;;;;;20.21;72.04;100479.41;4198504;28;20244;-70
2023/08/14 00:04:24;;;;;;;13.57;4.63;;;;;;;20.24;71.26;100481.75;4180405;28;25482;-68
2023/08/14 00:06:51;;;;;;;16.97;5.10;;;;;;;20.23;70.98;100477.31;4194585;28;20229;-71
2023/08/14 00:09:17;;;;;;;10.43;4.50;;;;;;;20.29;71.24;100478.34;4201642;28;20330;-71
2023/08/14 00:11:44;;;;;;;8.17;3.83;;;;;;;20.13;71.39;100476.88;4196918;28;20295;-69
2023/08/14 00:14:10;;;;;;;9.17;4.40;;;;;;;20.09;71.24;100476.44;4196336;28;20335;-70
2023/08/14 00:16:37;;;;;;;11.27;4.80;;;;;;;19.99;72.00;100473.25;4195302;28;26482;-70
2023/08/14 00:19:04;;;;;;;8.03;4.43;;;;;;;19.97;72.16;100473.47;4179981;28;21113;-68
2023/08/14 00:21:30;;;;;;;9.47;4.27;;;;;;;19.89;72.70;100476.41;4195616;28;20877;-68
2023/08/14 00:23:57;;;;;;;7.17;3.93;;;;;;;19.97;71.80;100465.22;4201995;28;25202;-69
2023/08/14 00:26:23;;;;;;;9.03;4.13;;;;;;;20.17;70.91;100469.88;4194526;28;20631;-68
2023/08/14 00:28:50;;;;;;;10.27;4.77;;;;;;;20.15;70.92;100472.84;4200079;28;20236;-67
2023/08/14 00:31:16;;;;;;;8.70;4.57;;;;;;;20.01;71.83;100468.41;4190735;28;20232;-68
2023/08/14 00:33:43;;;;;;;11.37;4.40;;;;;;;19.84;72.33;100477.03;4205362;28;21167;-69
2023/08/14 00:36:10;;;;;;;9.90;4.53;;;;;;;19.85;72.52;100475.13;4206256;28;20270;-68
2023/08/14 00:38:37;;;;;;;9.47;4.03;;;;;;;19.91;72.61;100482.53;4196901;28;20308;-71
2023/08/14 00:41:03;;;;;;;9.43;4.80;;;;;;;19.80;73.04;100483.97;4192287;28;20252;-70
2023/08/14 00:43:30;;;;;;;6.77;4.17;;;;;;;19.76;73.33;100478.03;4192552;28;20230;-74
2023/08/14 00:45:57;;;;;;;7.13;4.77;;;;;;;19.73;73.48;100492.19;4158744;28;21086;-69
2023/08/14 00:48:25;;;;;;;8.60;4.37;;;;;;;19.73;73.53;100483.94;4195327;28;20361;-71
2023/08/14 00:50:53;;;;;;;9.63;4.77;;;;;;;19.69;73.62;100490.91;4194213;28;23499;-70
2023/08/14 00:53:20;;;;;;;12.13;4.67;;;;;;;19.68;73.73;100488.34;4189388;28;20288;-69
2023/08/14 00:55:47;;;;;;;9.03;4.30;;;;;;;19.63;74.11;100495.31;4188033;28;22230;-69
2023/08/14 00:58:13;;;;;;;16.23;4.37;;;;;;;19.59;74.58;100501.44;4193109;28;20320;-69
2023/08/14 01:00:42;;;;;;;8.20;4.33;;;;;;;19.61;74.49;100499.34;4193429;28;20235;-68
2023/08/14 01:03:08;;;;;;;7.53;4.07;;;;;;;19.60;74.41;100503.97;4200308;28;20739;-68
2023/08/14 01:05:36;;;;;;;10.07;4.80;;;;;;;19.65;74.35;100508.84;4198727;28;21331;-70
2023/08/14 01:08:02;;;;;;;12.40;4.80;;;;;;;19.62;74.58;100504.59;4186231;28;20256;-67
2023/08/14 01:10:45;;;;;;;10.40;4.80;;;;;;;19.55;75.18;100511.16;4200221;28;21790;-70
2023/08/14 01:13:30;;;;;;;9.30;4.67;;;;;;;19.40;76.35;100503.91;4200584;28;21198;-69
2023/08/14 01:15:58;;;;;;;9.40;4.80;;;;;;;19.34;76.67;100509.34;4192861;28;20238;-71
2023/08/14 01:18:26;;;;;;;7.47;4.93;;;;;;;19.38;76.46;100502.38;4182992;28;20233;-69
2023/08/14 01:21:03;;;;;;;9.63;5.20;;;;;;;19.36;76.66;100508.09;4191071;28;20319;-69
2023/08/14 01:23:42;;;;;;;9.37;5.03;;;;;;;19.45;76.54;100517.84;4198869;28;20239;-68
2023/08/14 01:26:08;;;;;;;8.83;4.93;;;;;;;19.45;77.15;100530.72;4184323;28;22882;-70
2023/08/14 01:28:35;;;;;;;11.13;5.53;;;;;;;19.46;77.28;100532.41;4183963;28;20304;-69
2023/08/14 01:31:02;;;;;;;12.33;5.10;;;;;;;19.54;76.82;100534.16;4202351;28;20834;-71
2023/08/14 01:33:28;;;;;;;9.23;5.17;;;;;;;19.52;77.30;100539.84;4195633;28;20241;-70
2023/08/14 01:36:03;;;;;;;8.80;5.27;;;;;;;19.61;76.89;100532.28;4183730;28;22577;-69
2023/08/14 01:38:39;;;;;;;10.00;5.70;;;;;;;19.61;76.74;100532.28;4201951;28;20368;-69
2023/08/14 01:41:13;;;;;;;8.67;5.70;;;;;;;19.60;77.46;100539.66;4188563;28;20243;-72
2023/08/14 01:43:45;;;;;;;12.27;5.33;;;;;;;19.57;77.68;100547.47;4196001;28;20237;-70
2023/08/14 01:46:12;;;;;;;9.43;5.47;;;;;;;19.58;77.19;100536.28;4186285;28;25536;-69
2023/08/14 01:48:39;;;;;;;8.43;5.30;;;;;;;19.67;76.69;100533.38;4213117;28;20244;-68
2023/08/14 01:51:07;;;;;;;8.77;4.80;;;;;;;19.59;77.10;100527.00;4186410;28;20241;-69
2023/08/14 01:53:34;;;;;;;12.23;6.17;;;;;;;19.48;78.07;100531.19;4199155;28;20300;-70
2023/08/14 01:56:02;;;;;;;9.10;5.20;;;;;;;19.48;78.03;100522.94;4198758;28;20985;-69
2023/08/14 01:58:29;;;;;;;8.37;5.43;;;;;;;19.51;78.44;100520.81;4188678;28;21624;-69
2023/08/14 02:00:56;;;;;;;9.40;6.00;;;;;;;19.42;78.70;100514.66;4200278;28;20229;-70
2023/08/14 02:03:23;;;;;;;7.77;5.13;;;;;;;19.52;78.56;100520.63;4177573;28;23508;-68
2023/08/14 02:05:49;;;;;;;9.00;5.53;;;;;;;19.52;78.78;100519.78;4198808;28;23261;-70
2023/08/14 02:08:16;;;;;;;8.80;6.10;;;;;;;19.54;78.79;100515.78;4195998;28;20317;-69
2023/08/14 02:10:42;;;;;;;11.43;6.30;;;;;;;19.39;80.04;100518.69;4204672;28;20303;-68
2023/08/14 02:13:09;;;;;;;11.73;6.37;;;;;;;19.48;79.95;100505.63;4200112;28;20260;-70
2023/08/14 02:15:35;;;;;;;9.10;6.73;;;;;;;19.32;81.58;100509.56;4193330;28;20561;-67
2023/08/14 02:18:02;;;;;;;11.83;6.57;;;;;;;19.28;81.87;100519.22;4196756;28;20232;-68
2023/08/14 02:20:29;;;;;;;11.17;6.53;;;;;;;19.34;81.48;100515.66;4191604;28;21162;-69
2023/08/14 02:22:56;;;;;;;11.93;6.33;;;;;;;19.38;81.63;100527.09;4201289;28;20244;-69
2023/08/14 02:25:22;;;;;;;12.87;6.93;;;;;;;19.30;81.78;100523.47;4195810;28;20237;-69
2023/08/14 02:27:49;;;;;;;11.57;6.20;;;;;;;19.25;81.67;100531.47;4199964;28;21251;-69
2023/08/14 02:30:15;;;;;;;14.37;7.03;;;;;;;19.14;82.42;100526.56;4194460;28;20542;-70
2023/08/14 02:32:42;;;;;;;12.30;7.00;;;;;;;19.16;82.42;100527.19;4198069;28;20232;-68
2023/08/14 02:35:08;;;;;;;11.73;6.67;;;;;;;19.27;81.93;100531.25;4170990;28;20239;-72
2023/08/14 02:37:35;;;;;;;10.37;6.97;;;;;;;19.15;82.69;100534.59;4201077;28;23792;-68
2023/08/14 02:40:03;;;;;;;11.97;7.20;;;;;;;19.07;83.16;100532.00;4198103;28;20276;-70
2023/08/14 02:42:30;;;;;;;10.53;6.93;;;;;;;19.12;82.81;100534.97;4182207;28;20268;-69
2023/08/14 02:44:56;;;;;;;8.73;6.73;;;;;;;19.10;82.97;100534.34;4196386;28;20237;-71
2023/08/14 02:47:23;;;;;;;13.63;7.40;;;;;;;19.07;83.50;100531.16;4190439;28;21177;-71
2023/08/14 02:49:49;;;;;;;10.53;6.80;;;;;;;19.03;83.68;100536.22;4210095;28;21224;-68
2023/08/14 02:52:16;;;;;;;16.97;8.37;;;;;;;18.93;84.72;100530.22;4189218;28;22386;-69
2023/08/14 02:54:43;;;;;;;17.13;8.43;;;;;;;18.86;85.09;100516.41;4198056;28;20574;-71
2023/08/14 02:57:09;;;;;;;11.83;7.97;;;;;;;18.95;84.78;100522.66;4192191;28;20236;-67
2023/08/14 02:59:36;;;;;;;13.70;7.97;;;;;;;18.94;84.99;100512.72;4201595;28;20240;-71
2023/08/14 03:02:03;;;;;;;17.63;8.37;;;;;;;18.85;85.27;100512.84;4183672;28;20240;-69
2023/08/14 03:04:29;;;;;;;11.60;8.10;;;;;;;18.74;86.15;100513.38;4195937;28;20602;-67
2023/08/14 03:06:56;;;;;;;14.80;7.77;;;;;;;18.90;85.52;100525.94;4193596;28;20245;-68
2023/08/14 03:09:23;;;;;;;13.07;7.80;;;;;;;18.95;85.27;100522.66;4194045;28;20241;-71
2023/08/14 03:11:49;;;;;;;14.83;9.00;;;;;;;18.98;85.79;100522.22;4179727;28;22021;-69
2023/08/14 03:14:16;;;;;;;13.30;8.30;;;;;;;18.92;85.74;100515.63;4190479;28;20372;-69
2023/08/14 03:16:42;;;;;;;14.97;8.43;;;;;;;18.92;86.00;100521.13;4195721;28;23916;-68
2023/08/14 03:19:09;;;;;;;15.30;8.77;;;;;;;18.72;87.22;100525.59;4191877;28;22328;-69
2023/08/14 03:21:37;;;;;;;13.13;8.90;;;;;;;18.73;87.19;100533.63;4178264;28;20232;-69
2023/08/14 03:24:03;;;;;;;15.27;9.13;;;;;;;18.60;88.23;100533.50;4187372;28;20234;-70
2023/08/14 03:26:32;;;;;;;16.03;8.77;;;;;;;18.59;88.52;100531.81;4198119;28;20510;-67
2023/08/14 03:28:59;;;;;;;14.50;9.30;;;;;;;18.61;88.60;100530.59;4206395;28;20499;-71
2023/08/14 03:31:26;;;;;;;14.00;9.03;;;;;;;18.69;87.90;100529.59;4195697;28;20233;-69
2023/08/14 03:33:52;;;;;;;16.33;9.37;;;;;;;18.71;88.30;100527.50;4205905;28;20244;-69
2023/08/14 03:36:19;;;;;;;12.90;9.47;;;;;;;18.64;88.74;100529.34;4223137;28;20733;-69
2023/08/14 03:38:46;;;;;;;18.90;9.27;;;;;;;18.67;88.52;100531.66;4215377;28;20883;-67
2023/08/14 03:41:13;;;;;;;11.73;8.83;;;;;;;18.67;88.68;100518.81;4202594;28;20237;-70
2023/08/14 03:43:39;;;;;;;18.03;9.37;;;;;;;18.66;88.54;100522.63;4216343;28;26509;-70
2023/08/14 03:46:06;;;;;;;12.40;9.47;;;;;;;18.69;88.61;100519.44;4221174;28;20406;-70
2023/08/14 03:48:32;;;;;;;14.53;9.63;;;;;;;18.66;89.03;100514.38;4213191;28;20323;-68
2023/08/14 03:51:01;;;;;;;17.73;10.57;;;;;;;18.67;89.21;100524.31;4198558;28;20354;-71
2023/08/14 03:53:27;;;;;;;12.63;9.30;;;;;;;18.66;89.29;100525.34;4217379;28;20954;-67
2023/08/14 03:55:54;;;;;;;12.70;9.80;;;;;;;18.64;89.81;100519.22;4215033;28;20539;-71
2023/08/14 03:58:21;;;;;;;14.47;9.80;;;;;;;18.64;89.71;100523.88;4208136;28;20234;-69
2023/08/14 04:00:47;;;;;;;16.53;9.97;;;;;;;18.75;89.09;100516.97;4216482;28;20239;-71
2023/08/14 04:03:14;;;;;;;17.27;10.33;;;;;;;18.67;89.36;100518.81;4221273;28;21246;-69
2023/08/14 04:05:42;;;;;;;13.30;10.10;;;;;;;18.62;90.07;100518.56;4219268;28;22684;-70
2023/08/14 04:08:09;;;;;;;14.20;10.23;;;;;;;18.57;90.24;100525.69;4217474;28;22807;-68
2023/08/14 04:10:37;;;;;;;15.67;9.87;;;;;;;18.63;90.25;100523.00;4218276;28;22018;-67
2023/08/14 04:13:04;;;;;;;15.90;10.63;;;;;;;18.67;89.83;100523.44;4214145;28;20655;-69
2023/08/14 04:15:31;;;;;;;17.37;10.30;;;;;;;18.63;90.16;100520.25;4199320;28;22096;-68
2023/08/14 04:17:58;;;;;;;16.30;10.23;;;;;;;18.78;89.38;100519.31;4207769;28;20554;-68
2023/08/14 04:20:25;;;;;;;15.13;9.57;;;;;;;18.76;89.63;100538.72;4193293;28;20248;-70
2023/08/14 04:22:51;;;;;;;18.57;11.17;;;;;;;18.67;90.02;100532.53;4198270;28;20237;-68
2023/08/14 04:25:19;;;;;;;16.53;10.30;;;;;;;18.72;90.17;100537.44;4184898;28;21551;-70
2023/08/14 04:27:46;;;;;;;17.43;11.13;;;;;;;18.67;90.20;100529.78;4199425;28;20294;-70
2023/08/14 04:30:13;;;;;;;13.17;9.90;;;;;;;18.81;89.50;100530.72;4186640;28;20319;-69
2023/08/14 04:32:40;;;;;;;20.80;10.70;;;;;;;18.92;89.46;100545.81;4191359;28;20304;-68
2023/08/14 04:35:08;;;;;;;15.70;10.50;;;;;;;18.90;88.92;100530.56;4199301;28;20293;-69
2023/08/14 04:37:35;;;;;;;16.63;10.43;;;;;;;19.00;88.61;100542.91;4181747;28;21080;-66
2023/08/14 04:40:04;;;;;;;12.97;10.03;;;;;;;19.15;87.95;100544.69;4180067;28;20350;-68
2023/08/14 04:42:32;;;;;;;21.73;10.20;;;;;;;19.18;87.58;100541.56;4191681;28;20252;-68
2023/08/14 04:44:59;;;;;;;12.73;9.77;;;;;;;19.33;86.97;100546.94;4196123;28;21223;-69
2023/08/14 04:47:26;;;;;;;18.73;10.43;;;;;;;19.32;87.20;100548.00;4187321;28;21602;-69
2023/08/14 04:49:52;;;;;;;16.17;10.10;;;;;;;19.42;86.48;100547.63;4191993;28;21143;-70
2023/08/14 04:52:20;;;;;;;18.50;10.00;;;;;;;19.49;86.20;100548.50;4190370;28;20289;-70
2023/08/14 04:54:47;;;;;;;14.90;9.43;;;;;;;19.53;85.91;100554.41;4192329;28;21679;-67
2023/08/14 04:57:13;;;;;;;18.23;9.60;;;;;;;19.65;85.55;100566.50;4198009;28;20362;-68
2023/08/14 04:59:40;;;;;;;18.00;11.50;;;;;;;19.72;85.03;100578.38;4211639;28;20296;-70
2023/08/14 05:02:07;;;;;;;14.23;9.37;;;;;;;19.83;84.42;100573.34;4194860;28;22051;-69
2023/08/14 05:04:33;;;;;;;16.83;9.40;;;;;;;19.93;84.07;100571.94;4194036;28;21162;-67
2023/08/14 05:07:01;;;;;;;14.20;9.20;;;;;;;20.07;83.27;100583.84;4198303;28;23512;-69
2023/08/14 05:09:27;;;;;;;17.17;8.70;;;;;;;20.19;82.81;100567.59;4200510;28;20315;-69
2023/08/14 05:11:54;;;;;;;14.87;8.40;;;;;;;20.30;82.16;100570.75;4189566;28;20238;-68
2023/08/14 05:14:21;;;;;;;14.83;9.13;;;;;;;20.39;81.60;100572.25;4201330;28;20358;-70
2023/08/14 05:16:47;;;;;;;17.00;9.03;;;;;;;20.43;80.93;100568.91;4185574;28;20615;-71
2023/08/14 05:19:14;;;;;;;14.00;9.00;;;;;;;20.54;79.75;100572.91;4205399;28;20237;-70
2023/08/14 05:21:41;;;;;;;18.90;8.90;;;;;;;20.55;80.48;100571.88;4188801;28;20642;-67
2023/08/14 05:24:08;;;;;;;15.20;9.13;;;;;;;20.68;79.63;100570.16;4216469;28;21136;-67
2023/08/14 05:26:35;;;;;;;16.80;9.10;;;;;;;20.77;79.05;100576.38;4200480;28;20291;-65
2023/08/14 05:29:02;;;;;;;15.23;9.53;;;;;;;20.83;78.49;100568.09;4195543;28;20839;-69
2023/08/14 05:31:29;;;;;;;14.47;9.20;;;;;;;20.99;77.83;100572.34;4204939;28;20260;-71
2023/08/14 05:33:56;;;;;;;13.20;8.37;;;;;;;20.99;77.85;100572.34;4201913;28;25456;-69
2023/08/14 05:36:22;;;;;;;16.10;8.40;;;;;;;21.33;76.72;100575.84;4196521;28;20292;-67
2023/08/14 05:38:49;;;;;;;13.90;8.90;;;;;;;21.47;75.31;100584.94;4191613;28;20443;-69
2023/08/14 05:41:16;;;;;;;15.50;8.53;;;;;;;21.72;75.00;100584.22;4199444;28;23996;-69
2023/08/14 05:43:43;;;;;;;18.03;9.13;;;;;;;21.83;73.84;100579.94;4203814;28;20244;-69
2023/08/14 05:46:10;;;;;;;15.83;8.03;;;;;;;22.03;72.88;100582.63;4198244;28;20300;-69
2023/08/14 05:48:36;;;;;;;13.50;8.50;;;;;;;22.30;72.00;100586.06;4194494;28;20247;-69
2023/08/14 05:51:03;;;;;;;13.37;8.00;;;;;;;22.20;72.68;100585.72;4195958;28;20233;-68
2023/08/14 05:53:30;;;;;;;12.50;8.40;;;;;;;21.99;72.35;100592.41;4194542;28;22415;-69
2023/08/14 05:55:57;;;;;;;14.37;8.53;;;;;;;22.07;72.66;100591.28;4196579;28;21593;-69
2023/08/14 05:58:23;;;;;;;10.60;7.43;;;;;;;22.23;71.98;100584.44;4185874;28;20233;-71
2023/08/14 06:00:50;;;;;;;12.83;8.10;;;;;;;22.61;69.77;100581.66;4197075;28;21676;-68
2023/08/14 06:03:17;;;;;;;17.67;8.30;;;;;;;22.66;69.98;100582.91;4206272;28;20237;-68
2023/08/14 06:05:55;;;;;;;11.70;7.47;;;;;;;22.89;68.73;100585.03;4186822;28;20626;-73
2023/08/14 06:08:21;;;;;;;12.00;7.00;;;;;;;23.22;67.50;100576.47;4174371;28;20686;-72
2023/08/14 06:10:48;;;;;;;13.27;7.23;;;;;;;23.50;67.23;100582.56;4198225;28;20300;-69
2023/08/14 06:13:14;;;;;;;12.57;7.63;;;;;;;24.53;62.94;100582.69;4204004;28;20236;-68
2023/08/14 06:15:41;;;;;;;10.77;6.57;;;;;;;26.26;57.89;100585.25;4201394;28;20233;-69
2023/08/14 06:18:08;;;;;;;12.57;5.93;;;;;;;27.65;53.82;100576.38;4194803;28;20644;-69
2023/08/14 06:20:35;;;;;;;16.00;6.93;;;;;;;27.64;52.74;100583.06;4208107;28;20384;-70
2023/08/14 06:23:02;;;;;;;10.18;6.05;;;;;;;29.25;49.06;100582.69;4193726;28;20240;-70
2023/08/14 06:25:31;;;;;;;14.38;6.22;;;;;;;29.96;46.67;100591.72;4210246;28;20232;-67
2023/08/14 06:27:57;;;;;;;12.90;6.97;;;;;;;30.72;45.16;100586.56;4197389;28;20636;-70
2023/08/14 06:30:25;;;;;;;13.65;6.32;;;;;;;31.37;43.03;100595.19;4203129;28;20232;-69
2023/08/14 06:32:52;;;;;;;11.85;5.53;;;;;;;32.17;42.16;100590.69;4180869;28;21667;-69
2023/08/14 06:35:18;;;;;;;12.38;6.00;;;;;;;30.72;44.42;100594.97;4190165;28;20235;-71
2023/08/14 06:37:45;;;;;;;8.70;5.30;;;;;;;31.52;43.30;100590.69;4200033;28;21226;-69
2023/08/14 06:40:12;;;;;;;10.50;6.05;;;;;;;29.55;46.92;100590.41;4198908;28;20236;-68
2023/08/14 06:42:38;;;;;;;13.25;5.88;;;;;;;30.54;45.31;100601.94;4193023;28;20372;-69
2023/08/14 06:45:06;;;;;;;9.23;5.75;;;;;;;31.18;43.86;100597.75;4211733;28;20345;-69
2023/08/14 06:47:32;;;;;;;11.80;5.70;;;;;;;31.78;42.44;100597.03;4204814;28;20234;-69
2023/08/14 06:49:59;;;;;;;15.82;6.35;;;;;;;30.76;44.29;100602.50;4191430;28;20234;-69
2023/08/14 06:52:25;;;;;;;11.60;5.70;;;;;;;32.11;41.73;100588.19;4201923;28;22049;-69
2023/08/14 06:54:52;;;;;;;12.60;5.65;;;;;;;32.36;41.39;100595.66;4223180;28;20406;-69
2023/08/14 06:57:19;;;;;;;9.35;5.22;;;;;;;33.09;39.66;100601.53;4207358;28;23588;-69
2023/08/14 06:59:45;;;;;;;12.98;6.10;;;;;;;31.83;41.39;100591.44;4200224;28;20803;-72
2023/08/14 07:02:12;;;;;;;13.30;5.82;;;;;;;32.08;41.13;100592.41;4213707;28;20234;-69
2023/08/14 07:04:39;;;;;;;9.38;5.72;;;;;;;32.03;42.04;100589.66;4220997;28;20229;-68
2023/08/14 07:07:06;;;;;;;13.88;6.00;;;;;;;32.81;40.77;100596.47;4193647;28;20305;-71
2023/08/14 07:09:33;;;;;;;9.60;5.30;;;;;;;33.23;39.53;100587.66;4196634;28;25282;-68
2023/08/14 07:12:00;;;;;;;7.63;5.15;;;;;;;33.74;37.82;100591.88;4203316;28;22317;-70
2023/08/14 07:14:27;;;;;;;10.93;5.68;;;;;;;32.49;40.38;100585.75;4189952;28;22031;-71
2023/08/14 07:16:56;;;;;;;8.80;5.50;;;;;;;32.26;41.21;100593.75;4193128;28;20323;-68
2023/08/14 07:19:23;;;;;;;12.07;4.68;;;;;;;33.11;38.92;100588.03;4189629;28;25032;-69
2023/08/14 07:21:49;;;;;;;10.95;5.35;;;;;;;33.74;37.88;100587.06;4206997;28;20234;-71
2023/08/14 07:24:16;;;;;;;9.48;4.60;;;;;;;34.74;36.17;100586.22;4199791;28;20901;-69
2023/08/14 07:26:43;;;;;;;10.43;4.57;;;;;;;36.26;33.75;100603.56;4205421;28;21701;-71
2023/08/14 07:29:09;;;;;;;8.05;5.43;;;;;;;35.46;35.04;100605.81;4191901;28;20238;-68
2023/08/14 07:31:36;;;;;;;8.00;4.30;;;;;;;36.25;33.23;100599.06;4218871;28;21586;-72
2023/08/14 07:34:03;;;;;;;11.88;5.30;;;;;;;36.79;32.33;100607.63;4198948;28;20244;-69
2023/08/14 07:36:30;;;;;;;10.18;4.63;;;;;;;35.51;34.18;100614.16;4202665;28;20235;-70
2023/08/14 07:38:57;;;;;;;11.82;4.85;;;;;;;32.28;39.99;100616.72;4196338;28;20234;-72
2023/08/14 07:41:23;;;;;;;10.05;4.80;;;;;;;31.71;42.08;100607.72;4188543;28;20255;-70
2023/08/14 07:43:50;;;;;;;12.43;4.50;;;;;;;32.36;40.35;100604.06;4205814;28;21638;-70
2023/08/14 07:46:18;;;;;;;9.25;4.10;;;;;;;33.07;38.68;100601.00;4209953;28;21066;-67
2023/08/14 07:48:44;;;;;;;6.28;4.43;;;;;;;34.01;36.56;100618.50;4208360;28;20300;-71
2023/08/14 07:51:11;;;;;;;7.47;3.80;;;;;;;34.66;35.45;100619.84;4199188;28;22348;-71
2023/08/14 07:53:39;;;;;;;6.72;3.75;;;;;;;34.97;35.03;100620.19;4198218;28;20233;-70
2023/08/14 07:56:05;;;;;;;8.98;3.78;;;;;;;34.07;36.93;100612.53;4187478;28;20237;-70
2023/08/14 07:58:32;;;;;;;10.52;3.80;;;;;;;33.67;36.77;100608.25;4196030;28;22827;-70
2023/08/14 08:00:58;;;;;;;7.45;3.60;;;;;;;31.88;40.56;100616.59;4200077;28;20242;-70
2023/08/14 08:03:25;;;;;;;9.82;3.75;;;;;;;31.87;40.69;100623.31;4222963;28;20234;-69
2023/08/14 08:05:52;;;;;;;7.32;3.55;;;;;;;32.63;39.59;100622.34;4199467;28;20244;-71
2023/08/14 08:08:18;;;;;;;5.20;3.67;;;;;;;33.44;37.64;100621.97;4224039;28;20517;-71
2023/08/14 08:10:45;;;;;;;4.68;3.33;;;;;;;32.92;38.05;100635.63;4217373;28;20237;-70
2023/08/14 08:13:12;;;;;;;7.25;3.40;;;;;;;33.13;38.13;100628.69;4201577;28;20311;-70
2023/08/14 08:15:38;;;;;;;5.97;3.47;;;;;;;32.41;39.96;100620.84;4189061;28;20252;-67
2023/08/14 08:18:05;;;;;;;8.10;3.83;;;;;;;31.61;41.44;100628.16;4206343;28;20264;-72
2023/08/14 08:20:32;;;;;;;9.57;3.80;;;;;;;31.07;42.67;100636.03;4191205;28;20810;-70
2023/08/14 08:22:58;;;;;;;6.68;3.10;;;;;;;31.16;42.40;100636.34;4204557;28;20451;-70
2023/08/14 08:25:25;;;;;;;4.82;3.55;;;;;;;30.15;44.28;100640.34;4190830;28;20277;-69
2023/08/14 08:27:51;;;;;;;8.23;3.40;;;;;;;29.65;46.01;100627.84;4201451;28;20249;-71
2023/08/14 08:30:18;;;;;;;15.23;3.88;;;;;;;29.11;47.81;100623.28;4205726;28;20868;-70
2023/08/14 08:32:45;;;;;;;5.05;3.17;;;;;;;29.94;46.49;100633.88;4208358;28;21226;-69
2023/08/14 08:35:13;;;;;;;4.82;3.45;;;;;;;30.56;44.75;100630.44;4195740;28;20235;-72
2023/08/14 08:37:41;;;;;;;6.88;3.67;;;;;;;30.26;45.67;100627.25;4200420;28;20256;-69
2023/08/14 08:40:08;;;;;;;4.20;3.20;;;;;;;30.74;44.30;100629.06;4239714;28;25335;-70
2023/08/14 08:42:36;;;;;;;4.97;3.42;;;;;;;30.97;43.66;100631.31;4209662;28;25463;-68
2023/08/14 08:45:04;;;;;;;5.30;3.67;;;;;;;30.20;45.94;100631.16;4190594;28;20243;-68
2023/08/14 08:47:32;;;;;;;10.77;3.35;;;;;;;30.63;44.46;100642.19;4196510;28;20233;-70
2023/08/14 08:50:02;;;;;;;5.47;3.83;;;;;;;31.12;43.41;100643.63;4201802;28;20233;-70
2023/08/14 08:52:33;;;;;;;8.13;4.20;;;;;;;30.70;44.00;100645.53;4194606;28;20276;-70
2023/08/14 08:55:01;;;;;;;7.72;3.85;;;;;;;30.55;44.64;100635.19;4199309;28;21514;-70
2023/08/14 08:57:28;;;;;;;6.43;4.07;;;;;;;30.39;44.79;100636.25;4198232;28;20247;-71
2023/08/14 08:59:57;;;;;;;7.00;3.67;;;;;;;30.06;46.22;100636.44;4215943;28;20231;-70
2023/08/14 09:02:24;;;;;;;10.65;3.97;;;;;;;29.85;46.34;100639.09;4194905;28;20233;-70
2023/08/14 09:04:51;;;;;;;8.73;4.10;;;;;;;29.45;48.14;100631.34;4195166;28;20569;-68
2023/08/14 09:07:18;;;;;;;7.15;3.90;;;;;;;28.95;48.73;100631.53;4206021;28;20233;-70
2023/08/14 09:09:44;;;;;;;7.53;4.10;;;;;;;28.96;49.12;100624.00;4182312;28;20699;-68
2023/08/14 09:12:12;;;;;;;7.60;3.90;;;;;;;29.29;48.09;100620.06;4192092;28;20777;-71
2023/08/14 09:14:45;;;;;;;7.00;4.30;;;;;;;29.51;47.50;100602.38;4190881;28;20230;-68
2023/08/14 09:17:12;;;;;;;7.20;4.50;;;;;;;29.54;47.34;100610.22;4213380;28;20693;-68
2023/08/14 09:19:41;;;;;;;8.40;4.10;;;;;;;29.48;47.89;100608.50;4215643;28;20238;-68
2023/08/14 09:22:08;;;;;;;8.77;4.10;;;;;;;29.76;47.49;100607.22;4198123;28;20830;-70
2023/08/14 09:24:39;;;;;;;6.40;4.32;;;;;;;29.60;48.35;100614.69;4222819;28;20335;-67
2023/08/14 09:27:06;;;;;;;8.68;3.80;;;;;;;29.83;47.52;100609.78;4211477;28;20831;-68
2023/08/14 09:29:33;;;;;;;6.57;3.72;;;;;;;29.93;47.09;100611.81;4206882;28;20405;-70
2023/08/14 09:32:01;;;;;;;11.90;4.97;;;;;;;29.53;49.14;100609.34;4202339;28;22937;-70
2023/08/14 09:34:30;;;;;;;8.43;3.92;;;;;;;29.88;48.74;100596.69;4208174;28;20764;-70
2023/08/14 09:36:57;;;;;;;5.97;4.28;;;;;;;29.38;49.77;100592.56;4195099;28;20303;-70
2023/08/14 09:39:24;;;;;;;8.48;4.93;;;;;;;29.29;50.05;100586.59;4201819;28;20271;-69
2023/08/14 09:41:50;;;;;;;6.70;4.70;;;;;;;29.33;49.28;100586.94;4195218;28;20239;-69
2023/08/14 09:44:21;;;;;;;6.50;4.65;;;;;;;29.20;50.05;100586.28;4194964;28;20287;-70
2023/08/14 09:46:49;;;;;;;8.32;4.70;;;;;;;29.12;50.84;100577.59;4190600;28;20233;-68
2023/08/14 09:49:16;;;;;;;9.98;5.10;;;;;;;28.39;52.59;100578.91;4194219;28;20240;-68
2023/08/14 09:51:53;;;;;;;8.15;5.07;;;;;;;28.13;53.39;100590.63;4201451;28;20236;-70
2023/08/14 09:54:29;;;;;;;8.15;4.82;;;;;;;28.40;52.29;100587.00;4180328;28;25624;-67
2023/08/14 09:56:59;;;;;;;6.80;4.67;;;;;;;28.29;52.66;100582.41;4188602;28;20276;-70
2023/08/14 09:59:26;;;;;;;7.63;4.57;;;;;;;27.72;54.91;100581.75;4208479;28;20437;-71
2023/08/14 10:01:54;;;;;;;10.48;5.07;;;;;;;28.01;54.25;100584.31;4225259;28;20634;-69
2023/08/14 10:04:22;;;;;;;9.27;4.95;;;;;;;28.02;54.57;100588.78;4185730;28;21350;-68
2023/08/14 10:06:50;;;;;;;8.13;5.07;;;;;;;28.52;53.09;100597.97;4205172;28;20268;-67
2023/08/14 10:09:21;;;;;;;9.43;5.30;;;;;;;28.80;52.62;100584.03;4207312;28;21375;-71
2023/08/14 10:11:48;;;;;;;7.30;5.50;;;;;;;28.46;53.60;100590.69;4214916;28;20640;-72
2023/08/14 10:14:15;;;;;;;12.30;5.28;;;;;;;28.61;52.85;100585.25;4214181;28;21985;-69
2023/08/14 10:16:42;;;;;;;6.25;4.47;;;;;;;28.68;52.98;100587.78;4209769;28;20240;-69
2023/08/14 10:19:13;;;;;;;9.88;5.72;;;;;;;28.56;53.03;100592.72;4210277;28;20507;-68
2023/08/14 10:21:40;;;;;;;10.20;5.03;;;;;;;28.63;52.83;100584.97;4213399;28;25765;-69
2023/08/14 10:24:07;;;;;;;8.60;4.80;;;;;;;28.50;53.20;100589.03;4194064;28;20292;-69
2023/08/14 10:26:36;;;;;;;18.00;5.38;;;;;;;28.61;52.95;100588.03;4204515;28;21658;-68
2023/08/14 10:29:03;;;;;;;14.48;4.97;;;;;;;28.66;52.90;100592.81;4218768;28;20358;-69
2023/08/14 10:31:30;;;;;;;11.23;4.97;;;;;;;28.70;52.61;100582.00;4202714;28;21170;-72
2023/08/14 10:33:58;;;;;;;6.97;5.20;;;;;;;28.56;52.58;100576.81;4204663;28;20319;-66
2023/08/14 10:36:28;;;;;;;7.97;5.18;;;;;;;28.81;51.29;100582.94;4207133;28;20238;-69
2023/08/14 10:38:54;;;;;;;11.35;4.40;;;;;;;28.80;50.96;100584.03;4234156;28;21011;-68
2023/08/14 10:41:32;;;;;;;8.77;4.53;;;;;;;28.85;50.94;100587.72;4198157;28;20592;-68
2023/08/14 10:44:07;;;;;;;10.18;4.72;;;;;;;28.87;51.51;100581.88;4217239;28;20259;-73
2023/08/14 10:46:41;;;;;;;9.32;4.88;;;;;;;29.09;50.78;100574.22;4252154;28;20241;-69
2023/08/14 10:49:11;;;;;;;16.23;5.30;;;;;;;29.43;51.77;100577.78;4208539;28;22829;-71
2023/08/14 10:51:40;;;;;;;8.80;5.13;;;;;;;29.58;49.65;100574.25;4184326;28;22800;-71
2023/08/14 10:54:16;;;;;;;9.98;4.68;;;;;;;29.76;49.39;100570.97;4209671;28;20244;-69
2023/08/14 10:56:45;;;;;;;6.07;4.00;;;;;;;29.96;48.27;100580.56;4208966;28;20719;-69
2023/08/14 10:59:23;;;;;;;10.02;4.22;;;;;;;30.02;47.41;100579.47;4212811;28;20451;-68
2023/08/14 11:01:52;;;;;;;8.68;3.90;;;;;;;29.87;47.48;100574.66;4176862;28;20552;-68
2023/08/14 11:04:19;;;;;;;9.43;3.85;;;;;;;30.00;47.22;100576.09;4224793;28;20693;-68
2023/08/14 11:07:01;;;;;;;8.00;4.32;;;;;;;29.76;48.61;100573.75;4208973;28;21859;-70
2023/08/14 11:09:32;;;;;;;7.55;3.95;;;;;;;30.00;47.40;100567.72;4215374;28;20237;-70
2023/08/14 11:12:07;;;;;;;9.75;4.22;;;;;;;30.11;47.44;100575.03;4215044;28;20275;-70
2023/08/14 11:14:40;;;;;;;7.82;4.07;;;;;;;30.18;46.75;100571.97;4212973;28;21760;-69
2023/08/14 11:17:08;;;;;;;6.13;3.78;;;;;;;30.11;47.11;100563.88;4216284;28;22167;-68
2023/08/14 11:19:37;;;;;;;7.15;3.67;;;;;;;30.07;46.98;100557.13;4198113;28;20236;-72
2023/08/14 11:22:04;;;;;;;5.93;3.45;;;;;;;30.35;46.91;100553.00;4199184;28;20248;-70